sensor_id;sensor_type;location;lat;lon;timestamp;P1;durP1;ratioP1;P2;durP2;ratioP2
25125;SDS011;13106;50.808;5.670;2023-06-22T00:01:51;7.05;;;4.82;;
25125;SDS011;13106;50.808;5.670;2023-06-22T00:04:17;8.43;;;5.40;;
25125;SDS011;13106;50.808;5.670;2023-06-22T00:06:43;7.68;;;5.07;;
25125;SDS011;13106;50.808;5.670;2023-06-22T00:09:09;9.05;;;5.18;;
25125;SDS011;13106;50.808;5.670;2023-06-22T00:11:36;6.53;;;4.60;;
25125;SDS011;13106;50.808;5.670;2023-06-22T00:14:02;5.10;;;4.22;;
25125;SDS011;13106;50.808;5.670;2023-06-22T00:16:28;6.25;;;4.80;;
25125;SDS011;13106;50.808;5.670;2023-06-22T00:18:54;5.82;;;4.55;;
25125;SDS011;13106;50.808;5.670;2023-06-22T00:21:20;5.88;;;4.45;;
25125;SDS011;13106;50.808;5.670;2023-06-22T00:23:46;4.63;;;4.05;;
25125;SDS011;13106;50.808;5.670;2023-06-22T00:26:13;6.40;;;4.05;;
25125;SDS011;13106;50.808;5.670;2023-06-22T00:28:39;5.90;;;4.72;;
25125;SDS011;13106;50.808;5.670;2023-06-22T00:31:05;5.70;;;4.35;;
25125;SDS011;13106;50.808;5.670;2023-06-22T00:33:31;9.32;;;4.60;;
25125;SDS011;13106;50.808;5.670;2023-06-22T00:35:57;8.70;;;4.80;;
25125;SDS011;13106;50.808;5.670;2023-06-22T00:38:23;6.55;;;4.65;;
25125;SDS011;13106;50.808;5.670;2023-06-22T00:40:49;6.80;;;4.55;;
25125;SDS011;13106;50.808;5.670;2023-06-22T00:43:15;6.13;;;4.70;;
25125;SDS011;13106;50.808;5.670;2023-06-22T00:45:41;7.70;;;4.32;;
25125;SDS011;13106;50.808;5.670;2023-06-22T00:48:07;5.43;;;4.63;;
25125;SDS011;13106;50.808;5.670;2023-06-22T00:50:34;7.80;;;4.90;;
25125;SDS011;13106;50.808;5.670;2023-06-22T00:53:01;8.20;;;4.40;;
25125;SDS011;13106;50.808;5.670;2023-06-22T00:55:33;8.38;;;4.78;;
25125;SDS011;13106;50.808;5.670;2023-06-22T00:58:02;7.15;;;4.45;;
25125;SDS011;13106;50.808;5.670;2023-06-22T01:00:30;9.02;;;5.95;;
25125;SDS011;13106;50.808;5.670;2023-06-22T01:02:57;5.75;;;4.32;;
25125;SDS011;13106;50.808;5.670;2023-06-22T01:05:23;6.80;;;4.38;;
25125;SDS011;13106;50.808;5.670;2023-06-22T01:12:52;7.28;;;4.47;;
25125;SDS011;13106;50.808;5.670;2023-06-22T01:15:33;10.55;;;4.70;;
25125;SDS011;13106;50.808;5.670;2023-06-22T01:18:00;5.82;;;4.25;;
25125;SDS011;13106;50.808;5.670;2023-06-22T01:20:28;5.95;;;4.25;;
25125;SDS011;13106;50.808;5.670;2023-06-22T01:31:08;6.00;;;4.25;;
25125;SDS011;13106;50.808;5.670;2023-06-22T01:33:35;6.07;;;4.53;;
25125;SDS011;13106;50.808;5.670;2023-06-22T01:36:01;7.65;;;4.53;;
25125;SDS011;13106;50.808;5.670;2023-06-22T01:38:28;5.40;;;4.90;;
25125;SDS011;13106;50.808;5.670;2023-06-22T01:40:55;5.40;;;4.50;;
25125;SDS011;13106;50.808;5.670;2023-06-22T01:43:22;6.47;;;4.47;;
25125;SDS011;13106;50.808;5.670;2023-06-22T01:45:50;6.03;;;4.63;;
25125;SDS011;13106;50.808;5.670;2023-06-22T01:48:17;9.00;;;4.63;;
25125;SDS011;13106;50.808;5.670;2023-06-22T01:50:43;5.95;;;4.78;;
25125;SDS011;13106;50.808;5.670;2023-06-22T01:53:09;6.07;;;4.55;;
25125;SDS011;13106;50.808;5.670;2023-06-22T01:55:35;6.68;;;4.38;;
25125;SDS011;13106;50.808;5.670;2023-06-22T01:58:01;5.97;;;5.03;;
25125;SDS011;13106;50.808;5.670;2023-06-22T02:00:28;6.20;;;4.40;;
25125;SDS011;13106;50.808;5.670;2023-06-22T02:05:20;7.68;;;4.65;;
25125;SDS011;13106;50.808;5.670;2023-06-22T02:10:20;7.03;;;4.35;;
25125;SDS011;13106;50.808;5.670;2023-06-22T02:12:48;7.75;;;5.13;;
25125;SDS011;13106;50.808;5.670;2023-06-22T02:15:14;6.68;;;5.10;;
25125;SDS011;13106;50.808;5.670;2023-06-22T02:17:41;6.88;;;4.78;;
25125;SDS011;13106;50.808;5.670;2023-06-22T02:20:13;8.27;;;4.90;;
25125;SDS011;13106;50.808;5.670;2023-06-22T02:22:39;6.40;;;4.80;;
25125;SDS011;13106;50.808;5.670;2023-06-22T02:25:05;7.55;;;5.38;;
25125;SDS011;13106;50.808;5.670;2023-06-22T02:27:31;10.63;;;5.30;;
25125;SDS011;13106;50.808;5.670;2023-06-22T02:29:57;8.43;;;5.18;;
25125;SDS011;13106;50.808;5.670;2023-06-22T02:32:23;10.25;;;5.68;;
25125;SDS011;13106;50.808;5.670;2023-06-22T02:34:50;8.23;;;5.45;;
25125;SDS011;13106;50.808;5.670;2023-06-22T02:37:16;10.73;;;6.45;;
25125;SDS011;13106;50.808;5.670;2023-06-22T02:39:43;10.35;;;7.30;;
25125;SDS011;13106;50.808;5.670;2023-06-22T02:42:09;9.30;;;7.32;;
25125;SDS011;13106;50.808;5.670;2023-06-22T02:44:38;11.90;;;7.10;;
25125;SDS011;13106;50.808;5.670;2023-06-22T02:47:04;9.27;;;6.90;;
25125;SDS011;13106;50.808;5.670;2023-06-22T02:49:30;11.68;;;7.50;;
25125;SDS011;13106;50.808;5.670;2023-06-22T02:51:57;11.35;;;7.55;;
25125;SDS011;13106;50.808;5.670;2023-06-22T02:54:23;11.52;;;8.00;;
25125;SDS011;13106;50.808;5.670;2023-06-22T02:56:49;11.43;;;8.18;;
25125;SDS011;13106;50.808;5.670;2023-06-22T02:59:15;11.57;;;8.68;;
25125;SDS011;13106;50.808;5.670;2023-06-22T03:01:41;13.82;;;8.70;;
25125;SDS011;13106;50.808;5.670;2023-06-22T03:04:08;11.93;;;8.85;;
25125;SDS011;13106;50.808;5.670;2023-06-22T03:06:34;12.35;;;8.90;;
25125;SDS011;13106;50.808;5.670;2023-06-22T03:09:00;13.52;;;8.65;;
25125;SDS011;13106;50.808;5.670;2023-06-22T03:11:28;12.60;;;8.75;;
25125;SDS011;13106;50.808;5.670;2023-06-22T03:13:54;14.65;;;8.65;;
25125;SDS011;13106;50.808;5.670;2023-06-22T03:16:20;11.68;;;8.52;;
25125;SDS011;13106;50.808;5.670;2023-06-22T03:18:46;12.40;;;7.78;;
25125;SDS011;13106;50.808;5.670;2023-06-22T03:21:12;13.25;;;9.18;;
25125;SDS011;13106;50.808;5.670;2023-06-22T03:23:40;14.88;;;9.00;;
25125;SDS011;13106;50.808;5.670;2023-06-22T03:26:06;13.00;;;8.68;;
25125;SDS011;13106;50.808;5.670;2023-06-22T03:28:32;13.45;;;9.02;;
25125;SDS011;13106;50.808;5.670;2023-06-22T03:30:58;16.73;;;10.43;;
25125;SDS011;13106;50.808;5.670;2023-06-22T03:33:24;14.77;;;9.40;;
25125;SDS011;13106;50.808;5.670;2023-06-22T03:35:50;14.15;;;9.52;;
25125;SDS011;13106;50.808;5.670;2023-06-22T03:38:16;13.75;;;10.50;;
25125;SDS011;13106;50.808;5.670;2023-06-22T03:40:42;14.93;;;9.73;;
25125;SDS011;13106;50.808;5.670;2023-06-22T03:43:09;14.35;;;11.00;;
25125;SDS011;13106;50.808;5.670;2023-06-22T03:45:35;13.23;;;9.27;;
25125;SDS011;13106;50.808;5.670;2023-06-22T03:48:01;14.27;;;11.63;;
25125;SDS011;13106;50.808;5.670;2023-06-22T03:50:27;13.98;;;9.70;;
25125;SDS011;13106;50.808;5.670;2023-06-22T03:52:53;16.38;;;10.98;;
25125;SDS011;13106;50.808;5.670;2023-06-22T03:55:19;17.63;;;12.15;;
25125;SDS011;13106;50.808;5.670;2023-06-22T03:57:45;17.40;;;11.60;;
25125;SDS011;13106;50.808;5.670;2023-06-22T04:00:12;15.18;;;11.68;;
25125;SDS011;13106;50.808;5.670;2023-06-22T04:02:38;19.55;;;12.23;;
25125;SDS011;13106;50.808;5.670;2023-06-22T04:05:04;19.02;;;13.32;;
25125;SDS011;13106;50.808;5.670;2023-06-22T04:07:30;15.57;;;12.20;;
25125;SDS011;13106;50.808;5.670;2023-06-22T04:09:56;14.93;;;12.68;;
25125;SDS011;13106;50.808;5.670;2023-06-22T04:12:23;18.15;;;11.32;;
25125;SDS011;13106;50.808;5.670;2023-06-22T04:14:49;20.75;;;12.88;;
25125;SDS011;13106;50.808;5.670;2023-06-22T04:17:15;19.63;;;12.82;;
25125;SDS011;13106;50.808;5.670;2023-06-22T04:19:42;19.23;;;12.23;;
25125;SDS011;13106;50.808;5.670;2023-06-22T04:22:08;19.55;;;13.70;;
25125;SDS011;13106;50.808;5.670;2023-06-22T04:24:35;19.27;;;13.85;;
25125;SDS011;13106;50.808;5.670;2023-06-22T04:27:01;20.42;;;14.68;;
25125;SDS011;13106;50.808;5.670;2023-06-22T04:29:28;20.20;;;15.07;;
25125;SDS011;13106;50.808;5.670;2023-06-22T04:31:55;23.70;;;17.70;;
25125;SDS011;13106;50.808;5.670;2023-06-22T04:34:23;23.08;;;15.88;;
25125;SDS011;13106;50.808;5.670;2023-06-22T04:36:51;26.45;;;18.55;;
25125;SDS011;13106;50.808;5.670;2023-06-22T04:39:17;26.52;;;17.02;;
25125;SDS011;13106;50.808;5.670;2023-06-22T04:41:43;23.52;;;17.40;;
25125;SDS011;13106;50.808;5.670;2023-06-22T04:44:12;23.63;;;17.15;;
25125;SDS011;13106;50.808;5.670;2023-06-22T04:46:39;25.50;;;16.10;;
25125;SDS011;13106;50.808;5.670;2023-06-22T04:49:06;21.77;;;17.10;;
25125;SDS011;13106;50.808;5.670;2023-06-22T04:51:34;24.80;;;17.73;;
25125;SDS011;13106;50.808;5.670;2023-06-22T04:54:00;24.48;;;17.52;;
25125;SDS011;13106;50.808;5.670;2023-06-22T04:56:26;24.50;;;21.27;;
25125;SDS011;13106;50.808;5.670;2023-06-22T04:58:56;22.13;;;16.57;;
25125;SDS011;13106;50.808;5.670;2023-06-22T05:01:22;24.17;;;17.52;;
25125;SDS011;13106;50.808;5.670;2023-06-22T05:03:48;22.85;;;17.90;;
25125;SDS011;13106;50.808;5.670;2023-06-22T05:06:15;23.33;;;17.42;;
25125;SDS011;13106;50.808;5.670;2023-06-22T05:08:41;23.50;;;17.60;;
25125;SDS011;13106;50.808;5.670;2023-06-22T05:11:07;24.52;;;17.17;;
25125;SDS011;13106;50.808;5.670;2023-06-22T05:13:33;25.63;;;18.35;;
25125;SDS011;13106;50.808;5.670;2023-06-22T05:15:59;24.10;;;17.10;;
25125;SDS011;13106;50.808;5.670;2023-06-22T05:18:29;24.92;;;17.40;;
25125;SDS011;13106;50.808;5.670;2023-06-22T05:20:55;22.20;;;17.75;;
25125;SDS011;13106;50.808;5.670;2023-06-22T05:23:21;27.60;;;19.70;;
25125;SDS011;13106;50.808;5.670;2023-06-22T05:25:47;24.27;;;17.98;;
25125;SDS011;13106;50.808;5.670;2023-06-22T05:28:13;27.80;;;19.90;;
25125;SDS011;13106;50.808;5.670;2023-06-22T05:30:39;25.60;;;20.65;;
25125;SDS011;13106;50.808;5.670;2023-06-22T05:33:05;26.48;;;19.88;;
25125;SDS011;13106;50.808;5.670;2023-06-22T05:35:31;23.85;;;17.67;;
25125;SDS011;13106;50.808;5.670;2023-06-22T05:37:57;27.60;;;18.73;;
25125;SDS011;13106;50.808;5.670;2023-06-22T05:40:23;24.10;;;17.92;;
25125;SDS011;13106;50.808;5.670;2023-06-22T05:42:49;26.23;;;18.70;;
25125;SDS011;13106;50.808;5.670;2023-06-22T05:45:15;24.42;;;19.17;;
25125;SDS011;13106;50.808;5.670;2023-06-22T05:47:41;27.63;;;18.88;;
25125;SDS011;13106;50.808;5.670;2023-06-22T05:50:07;26.23;;;20.65;;
25125;SDS011;13106;50.808;5.670;2023-06-22T05:52:34;25.35;;;19.15;;
25125;SDS011;13106;50.808;5.670;2023-06-22T05:55:01;27.67;;;18.58;;
25125;SDS011;13106;50.808;5.670;2023-06-22T05:57:27;28.33;;;17.40;;
25125;SDS011;13106;50.808;5.670;2023-06-22T05:59:53;21.45;;;15.57;;
25125;SDS011;13106;50.808;5.670;2023-06-22T06:02:19;24.52;;;18.52;;
25125;SDS011;13106;50.808;5.670;2023-06-22T06:04:45;21.77;;;17.23;;
25125;SDS011;13106;50.808;5.670;2023-06-22T06:07:11;25.35;;;19.00;;
25125;SDS011;13106;50.808;5.670;2023-06-22T06:09:37;22.67;;;18.25;;
25125;SDS011;13106;50.808;5.670;2023-06-22T06:12:03;24.48;;;19.40;;
25125;SDS011;13106;50.808;5.670;2023-06-22T06:14:30;24.65;;;17.55;;
25125;SDS011;13106;50.808;5.670;2023-06-22T06:16:56;23.25;;;15.15;;
25125;SDS011;13106;50.808;5.670;2023-06-22T06:19:22;30.60;;;27.13;;
25125;SDS011;13106;50.808;5.670;2023-06-22T06:21:48;24.77;;;17.83;;
25125;SDS011;13106;50.808;5.670;2023-06-22T06:24:14;23.38;;;17.85;;
25125;SDS011;13106;50.808;5.670;2023-06-22T06:26:40;25.55;;;19.48;;
25125;SDS011;13106;50.808;5.670;2023-06-22T06:29:06;24.15;;;17.75;;
25125;SDS011;13106;50.808;5.670;2023-06-22T06:31:32;22.63;;;17.40;;
25125;SDS011;13106;50.808;5.670;2023-06-22T06:33:58;22.77;;;17.30;;
25125;SDS011;13106;50.808;5.670;2023-06-22T06:36:24;24.45;;;16.23;;
25125;SDS011;13106;50.808;5.670;2023-06-22T06:38:50;24.45;;;18.38;;
25125;SDS011;13106;50.808;5.670;2023-06-22T06:41:17;25.23;;;17.45;;
25125;SDS011;13106;50.808;5.670;2023-06-22T06:43:43;23.67;;;18.95;;
25125;SDS011;13106;50.808;5.670;2023-06-22T06:46:09;26.35;;;18.50;;
25125;SDS011;13106;50.808;5.670;2023-06-22T06:48:35;25.42;;;18.65;;
25125;SDS011;13106;50.808;5.670;2023-06-22T06:51:01;23.50;;;18.25;;
25125;SDS011;13106;50.808;5.670;2023-06-22T06:53:27;25.23;;;18.92;;
25125;SDS011;13106;50.808;5.670;2023-06-22T06:55:53;24.40;;;17.92;;
25125;SDS011;13106;50.808;5.670;2023-06-22T06:58:20;25.63;;;18.42;;
25125;SDS011;13106;50.808;5.670;2023-06-22T07:00:48;24.17;;;18.45;;
25125;SDS011;13106;50.808;5.670;2023-06-22T07:03:14;18.02;;;14.38;;
25125;SDS011;13106;50.808;5.670;2023-06-22T07:05:40;24.77;;;16.77;;
25125;SDS011;13106;50.808;5.670;2023-06-22T07:08:06;25.17;;;16.30;;
25125;SDS011;13106;50.808;5.670;2023-06-22T07:10:32;22.92;;;17.75;;
25125;SDS011;13106;50.808;5.670;2023-06-22T07:12:58;18.40;;;14.43;;
25125;SDS011;13106;50.808;5.670;2023-06-22T07:15:24;21.92;;;16.67;;
25125;SDS011;13106;50.808;5.670;2023-06-22T07:17:50;20.23;;;16.77;;
25125;SDS011;13106;50.808;5.670;2023-06-22T07:20:16;20.35;;;16.17;;
25125;SDS011;13106;50.808;5.670;2023-06-22T07:22:44;22.35;;;15.60;;
25125;SDS011;13106;50.808;5.670;2023-06-22T07:25:10;21.10;;;14.98;;
25125;SDS011;13106;50.808;5.670;2023-06-22T07:27:39;19.15;;;14.75;;
25125;SDS011;13106;50.808;5.670;2023-06-22T07:30:08;19.27;;;15.05;;
25125;SDS011;13106;50.808;5.670;2023-06-22T07:32:34;20.40;;;14.35;;
25125;SDS011;13106;50.808;5.670;2023-06-22T07:35:00;20.73;;;13.52;;
25125;SDS011;13106;50.808;5.670;2023-06-22T07:37:27;19.27;;;13.38;;
25125;SDS011;13106;50.808;5.670;2023-06-22T07:39:54;21.08;;;12.93;;
25125;SDS011;13106;50.808;5.670;2023-06-22T07:42:24;17.92;;;12.02;;
25125;SDS011;13106;50.808;5.670;2023-06-22T07:44:50;17.45;;;12.90;;
25125;SDS011;13106;50.808;5.670;2023-06-22T07:47:16;15.65;;;12.73;;
25125;SDS011;13106;50.808;5.670;2023-06-22T07:49:45;17.30;;;12.47;;
25125;SDS011;13106;50.808;5.670;2023-06-22T07:52:12;16.00;;;12.20;;
25125;SDS011;13106;50.808;5.670;2023-06-22T07:54:38;16.88;;;12.57;;
25125;SDS011;13106;50.808;5.670;2023-06-22T07:57:04;16.40;;;12.18;;
25125;SDS011;13106;50.808;5.670;2023-06-22T07:59:30;19.80;;;12.75;;
25125;SDS011;13106;50.808;5.670;2023-06-22T08:01:56;16.73;;;11.77;;
25125;SDS011;13106;50.808;5.670;2023-06-22T08:04:22;18.02;;;12.80;;
25125;SDS011;13106;50.808;5.670;2023-06-22T08:06:48;16.25;;;12.68;;
25125;SDS011;13106;50.808;5.670;2023-06-22T08:09:14;18.92;;;11.57;;
25125;SDS011;13106;50.808;5.670;2023-06-22T08:11:40;16.08;;;12.25;;
25125;SDS011;13106;50.808;5.670;2023-06-22T08:14:06;15.45;;;10.65;;
25125;SDS011;13106;50.808;5.670;2023-06-22T08:16:32;15.73;;;11.82;;
25125;SDS011;13106;50.808;5.670;2023-06-22T08:18:58;15.43;;;11.10;;
25125;SDS011;13106;50.808;5.670;2023-06-22T08:21:24;16.08;;;12.85;;
25125;SDS011;13106;50.808;5.670;2023-06-22T08:23:50;15.15;;;12.35;;
25125;SDS011;13106;50.808;5.670;2023-06-22T08:26:16;16.88;;;12.55;;
25125;SDS011;13106;50.808;5.670;2023-06-22T08:28:42;18.20;;;13.05;;
25125;SDS011;13106;50.808;5.670;2023-06-22T08:31:08;18.23;;;13.05;;
25125;SDS011;13106;50.808;5.670;2023-06-22T08:33:37;20.15;;;13.45;;
25125;SDS011;13106;50.808;5.670;2023-06-22T08:36:03;15.05;;;12.15;;
25125;SDS011;13106;50.808;5.670;2023-06-22T08:38:31;17.83;;;13.35;;
25125;SDS011;13106;50.808;5.670;2023-06-22T08:40:57;16.83;;;13.40;;
25125;SDS011;13106;50.808;5.670;2023-06-22T08:43:23;17.80;;;14.35;;
25125;SDS011;13106;50.808;5.670;2023-06-22T08:45:49;17.88;;;13.73;;
25125;SDS011;13106;50.808;5.670;2023-06-22T08:48:15;20.95;;;14.30;;
25125;SDS011;13106;50.808;5.670;2023-06-22T08:50:41;19.60;;;14.75;;
25125;SDS011;13106;50.808;5.670;2023-06-22T08:53:07;17.73;;;13.55;;
25125;SDS011;13106;50.808;5.670;2023-06-22T08:55:33;22.45;;;14.65;;
25125;SDS011;13106;50.808;5.670;2023-06-22T08:57:59;20.33;;;14.57;;
25125;SDS011;13106;50.808;5.670;2023-06-22T09:00:25;19.38;;;14.65;;
25125;SDS011;13106;50.808;5.670;2023-06-22T09:02:53;20.08;;;15.10;;
25125;SDS011;13106;50.808;5.670;2023-06-22T09:05:23;18.35;;;13.57;;
25125;SDS011;13106;50.808;5.670;2023-06-22T09:07:51;19.38;;;14.38;;
25125;SDS011;13106;50.808;5.670;2023-06-22T09:10:17;17.73;;;13.93;;
25125;SDS011;13106;50.808;5.670;2023-06-22T09:12:43;19.15;;;15.38;;
25125;SDS011;13106;50.808;5.670;2023-06-22T09:15:09;19.17;;;15.25;;
25125;SDS011;13106;50.808;5.670;2023-06-22T09:17:36;23.58;;;15.40;;
25125;SDS011;13106;50.808;5.670;2023-06-22T09:20:02;20.30;;;15.00;;
25125;SDS011;13106;50.808;5.670;2023-06-22T09:22:30;22.08;;;16.27;;
25125;SDS011;13106;50.808;5.670;2023-06-22T09:24:57;20.05;;;15.15;;
25125;SDS011;13106;50.808;5.670;2023-06-22T09:27:23;22.63;;;16.35;;
25125;SDS011;13106;50.808;5.670;2023-06-22T09:29:49;28.13;;;18.88;;
25125;SDS011;13106;50.808;5.670;2023-06-22T09:32:15;25.27;;;18.55;;
25125;SDS011;13106;50.808;5.670;2023-06-22T09:34:41;22.00;;;17.13;;
25125;SDS011;13106;50.808;5.670;2023-06-22T09:37:07;21.40;;;16.65;;
25125;SDS011;13106;50.808;5.670;2023-06-22T09:39:33;21.58;;;16.45;;
25125;SDS011;13106;50.808;5.670;2023-06-22T09:41:59;20.35;;;15.55;;
25125;SDS011;13106;50.808;5.670;2023-06-22T09:44:26;20.20;;;16.17;;
25125;SDS011;13106;50.808;5.670;2023-06-22T09:46:52;19.95;;;16.48;;
25125;SDS011;13106;50.808;5.670;2023-06-22T09:49:18;22.38;;;16.90;;
25125;SDS011;13106;50.808;5.670;2023-06-22T09:51:44;22.27;;;16.92;;
25125;SDS011;13106;50.808;5.670;2023-06-22T09:54:10;24.50;;;19.10;;
25125;SDS011;13106;50.808;5.670;2023-06-22T09:56:36;26.67;;;19.08;;
25125;SDS011;13106;50.808;5.670;2023-06-22T09:59:02;23.92;;;20.25;;
25125;SDS011;13106;50.808;5.670;2023-06-22T10:01:28;23.83;;;19.00;;
25125;SDS011;13106;50.808;5.670;2023-06-22T10:03:55;30.50;;;23.38;;
25125;SDS011;13106;50.808;5.670;2023-06-22T10:06:21;26.95;;;22.23;;
25125;SDS011;13106;50.808;5.670;2023-06-22T10:08:47;27.33;;;22.25;;
25125;SDS011;13106;50.808;5.670;2023-06-22T10:11:14;26.45;;;21.63;;
25125;SDS011;13106;50.808;5.670;2023-06-22T10:13:40;29.33;;;22.15;;
25125;SDS011;13106;50.808;5.670;2023-06-22T10:16:06;34.95;;;25.70;;
25125;SDS011;13106;50.808;5.670;2023-06-22T10:18:32;36.40;;;26.10;;
25125;SDS011;13106;50.808;5.670;2023-06-22T10:20:58;34.70;;;24.25;;
25125;SDS011;13106;50.808;5.670;2023-06-22T10:23:24;32.20;;;26.40;;
25125;SDS011;13106;50.808;5.670;2023-06-22T10:25:50;33.15;;;26.85;;
25125;SDS011;13106;50.808;5.670;2023-06-22T10:28:16;40.97;;;31.13;;
25125;SDS011;13106;50.808;5.670;2023-06-22T10:30:42;43.08;;;32.20;;
25125;SDS011;13106;50.808;5.670;2023-06-22T10:33:09;33.97;;;26.83;;
25125;SDS011;13106;50.808;5.670;2023-06-22T10:35:35;30.45;;;26.45;;
25125;SDS011;13106;50.808;5.670;2023-06-22T10:38:05;36.50;;;29.60;;
25125;SDS011;13106;50.808;5.670;2023-06-22T10:40:31;37.97;;;30.40;;
25125;SDS011;13106;50.808;5.670;2023-06-22T10:42:57;38.10;;;31.17;;
25125;SDS011;13106;50.808;5.670;2023-06-22T10:45:23;41.70;;;32.33;;
25125;SDS011;13106;50.808;5.670;2023-06-22T10:47:49;42.97;;;33.00;;
25125;SDS011;13106;50.808;5.670;2023-06-22T10:50:15;42.50;;;38.10;;
25125;SDS011;13106;50.808;5.670;2023-06-22T10:52:41;38.13;;;31.80;;
25125;SDS011;13106;50.808;5.670;2023-06-22T10:55:08;32.88;;;29.20;;
25125;SDS011;13106;50.808;5.670;2023-06-22T10:57:34;33.65;;;28.17;;
25125;SDS011;13106;50.808;5.670;2023-06-22T11:00:01;32.20;;;26.10;;
25125;SDS011;13106;50.808;5.670;2023-06-22T11:02:30;26.67;;;23.73;;
25125;SDS011;13106;50.808;5.670;2023-06-22T11:04:56;32.20;;;26.85;;
25125;SDS011;13106;50.808;5.670;2023-06-22T11:07:25;33.78;;;28.55;;
25125;SDS011;13106;50.808;5.670;2023-06-22T11:09:53;33.53;;;27.08;;
25125;SDS011;13106;50.808;5.670;2023-06-22T11:12:19;36.20;;;27.08;;
25125;SDS011;13106;50.808;5.670;2023-06-22T11:14:45;33.15;;;28.08;;
25125;SDS011;13106;50.808;5.670;2023-06-22T11:17:11;32.92;;;27.52;;
25125;SDS011;13106;50.808;5.670;2023-06-22T11:19:38;33.42;;;27.27;;
25125;SDS011;13106;50.808;5.670;2023-06-22T11:22:04;30.63;;;25.77;;
25125;SDS011;13106;50.808;5.670;2023-06-22T11:24:30;32.38;;;27.40;;
25125;SDS011;13106;50.808;5.670;2023-06-22T11:26:56;32.28;;;27.58;;
25125;SDS011;13106;50.808;5.670;2023-06-22T11:29:22;34.90;;;30.17;;
25125;SDS011;13106;50.808;5.670;2023-06-22T11:31:48;32.65;;;28.58;;
25125;SDS011;13106;50.808;5.670;2023-06-22T11:34:14;35.30;;;28.65;;
25125;SDS011;13106;50.808;5.670;2023-06-22T11:36:40;33.83;;;27.60;;
25125;SDS011;13106;50.808;5.670;2023-06-22T11:39:07;32.30;;;27.27;;
25125;SDS011;13106;50.808;5.670;2023-06-22T11:41:34;30.20;;;26.88;;
25125;SDS011;13106;50.808;5.670;2023-06-22T11:44:00;33.67;;;28.08;;
25125;SDS011;13106;50.808;5.670;2023-06-22T11:46:26;31.63;;;27.05;;
25125;SDS011;13106;50.808;5.670;2023-06-22T11:48:53;33.05;;;29.55;;
25125;SDS011;13106;50.808;5.670;2023-06-22T11:51:19;32.72;;;28.88;;
25125;SDS011;13106;50.808;5.670;2023-06-22T11:53:45;34.58;;;28.20;;
25125;SDS011;13106;50.808;5.670;2023-06-22T11:56:11;31.45;;;27.08;;
25125;SDS011;13106;50.808;5.670;2023-06-22T11:58:37;31.10;;;27.63;;
25125;SDS011;13106;50.808;5.670;2023-06-22T12:01:03;32.42;;;26.60;;
25125;SDS011;13106;50.808;5.670;2023-06-22T12:03:30;35.08;;;28.88;;
25125;SDS011;13106;50.808;5.670;2023-06-22T12:05:56;35.38;;;28.80;;
25125;SDS011;13106;50.808;5.670;2023-06-22T12:08:22;36.45;;;31.25;;
25125;SDS011;13106;50.808;5.670;2023-06-22T12:10:49;43.97;;;32.20;;
25125;SDS011;13106;50.808;5.670;2023-06-22T12:13:15;37.15;;;31.83;;
25125;SDS011;13106;50.808;5.670;2023-06-22T12:15:41;38.60;;;30.35;;
25125;SDS011;13106;50.808;5.670;2023-06-22T12:18:07;39.65;;;30.77;;
25125;SDS011;13106;50.808;5.670;2023-06-22T12:20:34;41.55;;;36.92;;
25125;SDS011;13106;50.808;5.670;2023-06-22T12:23:00;39.78;;;34.50;;
25125;SDS011;13106;50.808;5.670;2023-06-22T12:25:26;34.55;;;29.45;;
25125;SDS011;13106;50.808;5.670;2023-06-22T12:27:52;34.75;;;29.23;;
25125;SDS011;13106;50.808;5.670;2023-06-22T12:30:18;33.65;;;29.35;;
25125;SDS011;13106;50.808;5.670;2023-06-22T12:32:44;32.92;;;27.85;;
25125;SDS011;13106;50.808;5.670;2023-06-22T12:35:11;35.40;;;28.90;;
25125;SDS011;13106;50.808;5.670;2023-06-22T12:37:41;32.88;;;28.70;;
25125;SDS011;13106;50.808;5.670;2023-06-22T12:40:08;35.57;;;28.27;;
25125;SDS011;13106;50.808;5.670;2023-06-22T12:42:34;34.97;;;28.00;;
25125;SDS011;13106;50.808;5.670;2023-06-22T12:45:00;32.50;;;28.15;;
25125;SDS011;13106;50.808;5.670;2023-06-22T12:47:26;34.00;;;28.67;;
25125;SDS011;13106;50.808;5.670;2023-06-22T12:49:52;37.13;;;30.05;;
25125;SDS011;13106;50.808;5.670;2023-06-22T12:52:18;34.65;;;29.73;;
25125;SDS011;13106;50.808;5.670;2023-06-22T12:54:44;33.03;;;27.27;;
25125;SDS011;13106;50.808;5.670;2023-06-22T12:57:10;34.17;;;29.65;;
25125;SDS011;13106;50.808;5.670;2023-06-22T12:59:36;37.92;;;30.58;;
25125;SDS011;13106;50.808;5.670;2023-06-22T13:02:02;36.10;;;29.27;;
25125;SDS011;13106;50.808;5.670;2023-06-22T13:04:28;38.28;;;29.35;;
25125;SDS011;13106;50.808;5.670;2023-06-22T13:06:54;36.92;;;29.98;;
25125;SDS011;13106;50.808;5.670;2023-06-22T13:09:20;39.40;;;30.88;;
25125;SDS011;13106;50.808;5.670;2023-06-22T13:11:46;36.72;;;31.10;;
25125;SDS011;13106;50.808;5.670;2023-06-22T13:14:12;39.50;;;31.98;;
25125;SDS011;13106;50.808;5.670;2023-06-22T13:16:38;39.25;;;32.47;;
25125;SDS011;13106;50.808;5.670;2023-06-22T13:19:04;43.25;;;33.80;;
25125;SDS011;13106;50.808;5.670;2023-06-22T13:21:30;41.83;;;34.20;;
25125;SDS011;13106;50.808;5.670;2023-06-22T13:23:57;45.03;;;35.75;;
25125;SDS011;13106;50.808;5.670;2023-06-22T13:26:24;40.03;;;33.53;;
25125;SDS011;13106;50.808;5.670;2023-06-22T13:28:50;38.90;;;34.63;;
25125;SDS011;13106;50.808;5.670;2023-06-22T13:31:16;41.22;;;33.83;;
25125;SDS011;13106;50.808;5.670;2023-06-22T13:33:42;46.20;;;36.47;;
25125;SDS011;13106;50.808;5.670;2023-06-22T13:36:10;39.88;;;33.05;;
25125;SDS011;13106;50.808;5.670;2023-06-22T13:38:36;42.15;;;35.83;;
25125;SDS011;13106;50.808;5.670;2023-06-22T13:41:03;44.65;;;32.17;;
25125;SDS011;13106;50.808;5.670;2023-06-22T13:43:29;42.55;;;34.58;;
25125;SDS011;13106;50.808;5.670;2023-06-22T13:45:55;40.28;;;31.77;;
25125;SDS011;13106;50.808;5.670;2023-06-22T13:48:21;40.60;;;32.25;;
25125;SDS011;13106;50.808;5.670;2023-06-22T13:50:48;38.90;;;32.90;;
25125;SDS011;13106;50.808;5.670;2023-06-22T13:53:15;44.92;;;33.75;;
25125;SDS011;13106;50.808;5.670;2023-06-22T13:55:41;49.85;;;34.75;;
25125;SDS011;13106;50.808;5.670;2023-06-22T13:58:07;49.65;;;36.95;;
25125;SDS011;13106;50.808;5.670;2023-06-22T14:00:33;52.65;;;44.70;;
25125;SDS011;13106;50.808;5.670;2023-06-22T14:02:59;46.50;;;35.92;;
25125;SDS011;13106;50.808;5.670;2023-06-22T14:05:25;55.47;;;41.55;;
25125;SDS011;13106;50.808;5.670;2023-06-22T14:07:51;51.38;;;38.38;;
25125;SDS011;13106;50.808;5.670;2023-06-22T14:10:17;43.17;;;34.63;;
25125;SDS011;13106;50.808;5.670;2023-06-22T14:12:43;46.80;;;36.63;;
25125;SDS011;13106;50.808;5.670;2023-06-22T14:15:09;48.03;;;37.58;;
25125;SDS011;13106;50.808;5.670;2023-06-22T14:17:35;44.15;;;35.17;;
25125;SDS011;13106;50.808;5.670;2023-06-22T14:20:02;50.95;;;39.17;;
25125;SDS011;13106;50.808;5.670;2023-06-22T14:22:28;45.40;;;36.75;;
25125;SDS011;13106;50.808;5.670;2023-06-22T14:24:54;48.38;;;36.35;;
25125;SDS011;13106;50.808;5.670;2023-06-22T14:27:23;44.72;;;39.90;;
25125;SDS011;13106;50.808;5.670;2023-06-22T14:29:49;40.28;;;31.98;;
25125;SDS011;13106;50.808;5.670;2023-06-22T14:32:15;38.20;;;31.30;;
25125;SDS011;13106;50.808;5.670;2023-06-22T14:34:41;41.33;;;33.22;;
25125;SDS011;13106;50.808;5.670;2023-06-22T14:37:08;37.30;;;30.00;;
25125;SDS011;13106;50.808;5.670;2023-06-22T14:39:40;39.00;;;29.98;;